createdAt,value
2018-05-14T00:00:15.503Z,0.00
2018-05-14T00:01:15.463Z,0.00
2018-05-14T00:02:15.437Z,0.00
2018-05-14T00:03:15.388Z,0.00
2018-05-14T00:04:15.360Z,0.00
2018-05-14T00:05:15.324Z,0.00
2018-05-14T00:06:15.292Z,0.00
2018-05-14T00:07:15.259Z,0.00
2018-05-14T00:08:15.228Z,0.00
2018-05-14T00:09:15.199Z,0.00
2018-05-14T00:10:15.153Z,0.00
2018-05-14T00:11:15.286Z,0.00
2018-05-14T00:12:15.101Z,0.00
2018-05-14T00:13:15.060Z,0.00
2018-05-14T00:14:15.023Z,0.00
2018-05-14T00:15:14.965Z,0.00
2018-05-14T00:16:14.944Z,0.00
2018-05-14T00:17:14.898Z,0.00
2018-05-14T00:18:14.915Z,0.00
2018-05-14T00:19:14.834Z,0.00
2018-05-14T00:20:14.807Z,0.00
2018-05-14T00:21:14.777Z,0.00
2018-05-14T00:22:14.725Z,0.00
2018-05-14T00:23:14.707Z,0.00
2018-05-14T00:24:14.658Z,0.00
2018-05-14T00:25:14.626Z,0.00
2018-05-14T00:26:14.598Z,0.00
2018-05-14T00:27:14.582Z,0.00
2018-05-14T00:28:14.532Z,0.00
2018-05-14T00:29:14.511Z,0.00
2018-05-14T00:30:14.466Z,0.00
2018-05-14T00:31:14.431Z,0.00
2018-05-14T00:32:14.385Z,0.00
2018-05-14T00:33:14.364Z,0.00
2018-05-14T00:34:14.323Z,0.00
2018-05-14T00:35:14.270Z,0.00
2018-05-14T00:36:14.246Z,0.00
2018-05-14T00:37:14.205Z,0.00
2018-05-14T00:38:14.179Z,0.00
2018-05-14T00:39:14.146Z,0.00
2018-05-14T00:40:14.117Z,0.00
2018-05-14T00:41:14.081Z,0.00
2018-05-14T00:42:14.024Z,0.00
2018-05-14T00:43:14.009Z,0.00
2018-05-14T00:44:13.972Z,0.00
2018-05-14T00:45:13.959Z,0.00
2018-05-14T00:46:13.895Z,0.00
2018-05-14T00:47:13.851Z,0.00
2018-05-14T00:48:13.839Z,0.00
2018-05-14T00:49:13.786Z,0.00
2018-05-14T00:50:13.752Z,0.00
2018-05-14T00:51:13.723Z,0.00
2018-05-14T00:52:13.675Z,0.00
2018-05-14T00:53:13.647Z,0.00
2018-05-14T00:54:13.618Z,0.00
2018-05-14T00:55:13.593Z,0.00
2018-05-14T00:56:13.566Z,0.00
2018-05-14T00:57:13.506Z,0.00
2018-05-14T00:58:13.478Z,0.00
2018-05-14T00:59:13.438Z,0.00
2018-05-14T01:00:13.454Z,0.00
2018-05-14T01:01:13.367Z,0.00
2018-05-14T01:02:13.327Z,0.00
2018-05-14T01:03:13.316Z,0.00
2018-05-14T01:04:13.272Z,0.00
2018-05-14T01:05:13.235Z,0.00
2018-05-14T01:06:13.193Z,0.00
2018-05-14T01:07:13.151Z,0.00
2018-05-14T01:08:13.122Z,0.00
2018-05-14T01:09:13.074Z,0.00
2018-05-14T01:10:13.068Z,0.00
2018-05-14T01:11:13.010Z,0.00
2018-05-14T01:12:12.981Z,0.00
2018-05-14T01:13:12.932Z,0.00
2018-05-14T01:14:12.934Z,0.00
2018-05-14T01:15:12.880Z,0.00
2018-05-14T01:16:12.880Z,0.00
2018-05-14T01:17:12.800Z,0.00
2018-05-14T01:18:12.773Z,0.00
2018-05-14T01:19:12.765Z,0.00
2018-05-14T01:20:12.683Z,0.00
2018-05-14T01:21:12.678Z,0.00
2018-05-14T01:22:12.646Z,0.00
2018-05-14T01:23:12.604Z,0.00
2018-05-14T01:24:12.547Z,0.00
2018-05-14T01:25:12.527Z,0.00
2018-05-14T01:26:12.512Z,0.00
2018-05-14T01:27:12.452Z,0.00
2018-05-14T01:28:12.501Z,0.00
2018-05-14T01:29:12.390Z,0.00
2018-05-14T01:30:12.353Z,0.00
2018-05-14T01:31:12.303Z,0.00
2018-05-14T01:32:12.274Z,0.00
2018-05-14T01:33:12.282Z,0.00
2018-05-14T01:34:12.226Z,0.00
2018-05-14T01:35:12.190Z,0.00
2018-05-14T01:36:12.150Z,0.00
2018-05-14T01:37:12.086Z,0.00
2018-05-14T01:38:12.071Z,0.00
2018-05-14T01:39:13.896Z,0.00
2018-05-14T01:40:11.991Z,0.00
2018-05-14T01:41:11.962Z,0.00
2018-05-14T01:42:11.918Z,0.00
2018-05-14T01:43:11.896Z,0.00
2018-05-14T01:44:11.866Z,0.00
2018-05-14T01:45:11.804Z,0.00
2018-05-14T01:46:11.767Z,0.00
2018-05-14T01:47:11.740Z,0.00
2018-05-14T01:48:11.742Z,0.00
2018-05-14T01:49:11.693Z,0.00
2018-05-14T01:50:11.633Z,0.00
2018-05-14T01:51:11.611Z,0.00
2018-05-14T01:52:11.581Z,0.00
2018-05-14T01:53:11.529Z,0.00
2018-05-14T01:54:11.497Z,0.00
2018-05-14T01:55:11.453Z,0.00
2018-05-14T01:56:11.435Z,0.00
2018-05-14T01:57:11.404Z,0.00
2018-05-14T01:58:11.347Z,0.00
2018-05-14T01:59:11.332Z,0.00
2018-05-14T02:00:11.271Z,0.00
2018-05-14T02:01:11.259Z,0.00
2018-05-14T02:02:11.206Z,0.00
2018-05-14T02:03:11.166Z,0.00
2018-05-14T02:04:11.147Z,0.00
2018-05-14T02:05:11.094Z,0.00
2018-05-14T02:06:11.054Z,0.00
2018-05-14T02:07:11.032Z,0.00
2018-05-14T02:08:11.026Z,0.00
2018-05-14T02:09:10.965Z,0.00
2018-05-14T02:10:10.928Z,0.00
2018-05-14T02:11:10.891Z,0.00
2018-05-14T02:12:10.847Z,0.00
2018-05-14T02:13:10.845Z,0.00
2018-05-14T02:14:10.789Z,0.00
2018-05-14T02:15:10.788Z,0.00
2018-05-14T02:16:10.707Z,0.00
2018-05-14T02:17:10.654Z,0.00
2018-05-14T02:18:10.632Z,0.00
2018-05-14T02:19:10.598Z,0.00
2018-05-14T02:20:10.569Z,0.00
2018-05-14T02:21:10.529Z,0.00
2018-05-14T02:22:10.499Z,0.00
2018-05-14T02:23:10.447Z,0.00
2018-05-14T02:24:10.449Z,0.00
2018-05-14T02:25:10.391Z,0.00
2018-05-14T02:26:10.344Z,0.00
2018-05-14T02:27:10.316Z,0.00
2018-05-14T02:28:10.275Z,0.00
2018-05-14T02:29:10.232Z,0.00
2018-05-14T02:30:10.203Z,0.00
2018-05-14T02:31:10.158Z,0.00
2018-05-14T02:32:10.139Z,0.00
2018-05-14T02:33:10.094Z,0.00
2018-05-14T02:34:10.050Z,0.00
2018-05-14T02:35:10.003Z,0.00
2018-05-14T02:36:09.985Z,0.00
2018-05-14T02:37:09.975Z,0.00
2018-05-14T02:38:09.912Z,0.00
2018-05-14T02:39:09.978Z,0.00
2018-05-14T02:40:09.869Z,0.00
2018-05-14T02:41:09.850Z,0.00
2018-05-14T02:42:09.765Z,0.00
2018-05-14T02:43:09.727Z,0.00
2018-05-14T02:44:09.715Z,0.00
2018-05-14T02:45:09.660Z,0.00
2018-05-14T02:46:09.630Z,0.00
2018-05-14T02:47:09.606Z,0.00
2018-05-14T02:48:09.541Z,0.00
2018-05-14T02:49:09.517Z,0.00
2018-05-14T02:50:09.465Z,0.00
2018-05-14T02:51:09.468Z,0.00
2018-05-14T02:52:09.410Z,0.00
2018-05-14T02:53:09.361Z,0.00
2018-05-14T02:54:09.338Z,0.00
2018-05-14T02:55:09.322Z,0.00
2018-05-14T02:56:09.267Z,0.00
2018-05-14T02:57:09.222Z,0.00
2018-05-14T02:58:09.181Z,0.00
2018-05-14T02:59:09.145Z,0.00
2018-05-14T03:00:09.147Z,0.00
2018-05-14T03:01:09.076Z,0.00
2018-05-14T03:02:09.056Z,0.00
2018-05-14T03:03:09.032Z,0.00
2018-05-14T03:04:08.968Z,0.00
2018-05-14T03:05:08.942Z,0.00
2018-05-14T03:06:08.898Z,0.00
2018-05-14T03:07:08.858Z,0.00
2018-05-14T03:08:08.831Z,0.00
2018-05-14T03:09:08.856Z,5.63
2018-05-14T03:10:08.787Z,5.63
2018-05-14T03:11:08.719Z,5.63
2018-05-14T03:12:08.667Z,5.63
2018-05-14T03:13:08.656Z,11.25
2018-05-14T03:14:08.649Z,11.25
2018-05-14T03:15:08.577Z,16.88
2018-05-14T03:16:08.544Z,16.88
2018-05-14T03:17:08.490Z,16.88
2018-05-14T03:18:08.472Z,22.50
2018-05-14T03:19:08.435Z,22.50
2018-05-14T03:20:08.387Z,22.50
2018-05-14T03:21:08.396Z,22.50
2018-05-14T03:22:08.327Z,22.50
2018-05-14T03:23:08.286Z,28.13
2018-05-14T03:24:08.265Z,28.13
2018-05-14T03:25:08.228Z,33.75
2018-05-14T03:26:08.228Z,33.75
2018-05-14T03:27:08.175Z,39.38
2018-05-14T03:28:08.099Z,39.38
2018-05-14T03:29:08.084Z,45.00
2018-05-14T03:30:08.050Z,45.00
2018-05-14T03:31:08.004Z,50.63
2018-05-14T03:32:07.961Z,56.25
2018-05-14T03:33:07.914Z,61.88
2018-05-14T03:34:07.912Z,67.50
2018-05-14T03:35:07.875Z,67.50
2018-05-14T03:36:07.813Z,73.13
2018-05-14T03:37:07.767Z,73.13
2018-05-14T03:38:07.727Z,78.75
2018-05-14T03:39:07.714Z,78.75
2018-05-14T03:40:07.658Z,84.38
2018-05-14T03:41:07.643Z,90.00
2018-05-14T03:42:07.594Z,90.00
2018-05-14T03:43:07.575Z,95.63
2018-05-14T03:44:07.513Z,101.25
2018-05-14T03:45:07.521Z,106.88
2018-05-14T03:46:07.454Z,112.50
2018-05-14T03:47:07.429Z,118.13
2018-05-14T03:48:07.393Z,129.38
2018-05-14T03:49:07.336Z,135.00
2018-05-14T03:50:07.323Z,140.63
2018-05-14T03:51:07.260Z,146.25
2018-05-14T03:52:07.260Z,151.88
2018-05-14T03:53:07.204Z,157.50
2018-05-14T03:54:07.152Z,163.13
2018-05-14T03:55:07.121Z,168.75
2018-05-14T03:56:07.072Z,168.75
2018-05-14T03:57:07.055Z,174.38
2018-05-14T03:58:07.003Z,180.00
2018-05-14T03:59:06.987Z,185.63
2018-05-14T04:00:06.948Z,185.63
2018-05-14T04:01:06.902Z,191.25
2018-05-14T04:02:06.867Z,196.88
2018-05-14T04:03:06.832Z,196.88
2018-05-14T04:04:06.806Z,202.50
2018-05-14T04:05:06.792Z,208.13
2018-05-14T04:06:06.758Z,213.75
2018-05-14T04:07:06.704Z,213.75
2018-05-14T04:08:06.660Z,219.38
2018-05-14T04:09:06.622Z,225.00
2018-05-14T04:10:06.622Z,230.63
2018-05-14T04:11:06.581Z,230.63
2018-05-14T04:12:06.561Z,230.63
2018-05-14T04:13:06.488Z,236.25
2018-05-14T04:14:06.468Z,241.88
2018-05-14T04:15:06.430Z,253.13
2018-05-14T04:16:06.390Z,258.75
2018-05-14T04:17:06.353Z,264.38
2018-05-14T04:18:06.346Z,270.00
2018-05-14T04:19:06.276Z,275.63
2018-05-14T04:20:06.231Z,286.88
2018-05-14T04:21:06.239Z,286.88
2018-05-14T04:22:06.189Z,286.88
2018-05-14T04:23:06.126Z,286.88
2018-05-14T04:24:06.128Z,292.50
2018-05-14T04:25:06.039Z,298.13
2018-05-14T04:26:06.045Z,309.38
2018-05-14T04:27:05.987Z,309.38
2018-05-14T04:28:05.943Z,309.38
2018-05-14T04:29:05.916Z,315.00
2018-05-14T04:30:05.890Z,320.63
2018-05-14T04:31:05.849Z,320.63
2018-05-14T04:32:05.822Z,326.25
2018-05-14T04:33:05.790Z,326.25
2018-05-14T04:34:05.744Z,331.88
2018-05-14T04:35:05.720Z,337.50
2018-05-14T04:36:05.675Z,343.13
2018-05-14T04:37:05.637Z,348.75
2018-05-14T04:38:05.612Z,348.75
2018-05-14T04:39:05.593Z,354.38
2018-05-14T04:40:05.523Z,360.00
2018-05-14T04:41:05.502Z,365.63
2018-05-14T04:42:05.454Z,371.25
2018-05-14T04:43:05.428Z,376.88
2018-05-14T04:44:05.379Z,393.75
2018-05-14T04:45:05.433Z,405.00
2018-05-14T04:46:05.315Z,393.75
2018-05-14T04:47:05.281Z,393.75
2018-05-14T04:48:05.238Z,405.00
2018-05-14T04:49:05.209Z,410.63
2018-05-14T04:50:05.153Z,410.63
2018-05-14T04:51:05.150Z,438.75
2018-05-14T04:52:05.123Z,444.38
2018-05-14T04:53:05.075Z,438.75
2018-05-14T04:54:05.051Z,450.00
2018-05-14T04:55:05.009Z,478.13
2018-05-14T04:56:04.961Z,511.88
2018-05-14T04:57:04.928Z,556.88
2018-05-14T04:58:04.875Z,607.50
2018-05-14T04:59:04.857Z,669.38
2018-05-14T05:00:04.819Z,720.00
2018-05-14T05:01:04.813Z,720.00
2018-05-14T05:02:04.760Z,978.75
2018-05-14T05:03:04.747Z,1181.25
2018-05-14T05:04:04.710Z,1186.88
2018-05-14T05:05:04.640Z,1271.25
2018-05-14T05:06:04.695Z,1254.38
2018-05-14T05:07:04.605Z,1248.75
2018-05-14T05:08:04.575Z,1276.88
2018-05-14T05:09:04.512Z,1310.63
2018-05-14T05:10:04.499Z,1406.25
2018-05-14T05:11:04.457Z,1462.50
2018-05-14T05:12:04.392Z,1423.13
2018-05-14T05:13:04.382Z,1445.63
2018-05-14T05:14:04.338Z,1530.00
2018-05-14T05:15:04.309Z,1541.25
2018-05-14T05:16:04.271Z,1507.50
2018-05-14T05:17:04.264Z,1423.13
2018-05-14T05:18:04.249Z,1215.00
2018-05-14T05:19:04.181Z,1035.00
2018-05-14T05:20:04.141Z,900.00
2018-05-14T05:21:04.124Z,855.00
2018-05-14T05:22:04.110Z,613.13
2018-05-14T05:23:04.054Z,523.13
2018-05-14T05:24:04.051Z,534.38
2018-05-14T05:25:04.005Z,585.00
2018-05-14T05:26:03.979Z,562.50
2018-05-14T05:27:03.938Z,534.38
2018-05-14T05:28:03.909Z,613.13
2018-05-14T05:29:03.904Z,781.88
2018-05-14T05:30:03.839Z,759.38
2018-05-14T05:31:03.807Z,843.75
2018-05-14T05:32:03.787Z,945.00
2018-05-14T05:33:03.765Z,618.75
2018-05-14T05:34:03.708Z,579.38
2018-05-14T05:35:03.705Z,590.63
2018-05-14T05:36:03.667Z,573.75
2018-05-14T05:37:03.625Z,568.13
2018-05-14T05:38:03.728Z,585.00
2018-05-14T05:39:03.552Z,590.63
2018-05-14T05:40:03.517Z,545.63
2018-05-14T05:41:03.528Z,562.50
2018-05-14T05:42:03.482Z,596.25
2018-05-14T05:43:03.435Z,652.50
2018-05-14T05:44:03.403Z,613.13
2018-05-14T05:45:03.403Z,646.88
2018-05-14T05:46:03.369Z,708.75
2018-05-14T05:47:03.290Z,714.38
2018-05-14T05:48:03.312Z,675.00
2018-05-14T05:49:03.239Z,562.50
2018-05-14T05:50:03.215Z,568.13
2018-05-14T05:51:03.179Z,573.75
2018-05-14T05:52:03.128Z,568.13
2018-05-14T05:53:03.129Z,630.00
2018-05-14T05:54:03.081Z,1023.75
2018-05-14T05:55:03.056Z,821.25
2018-05-14T05:56:03.085Z,607.50
2018-05-14T05:57:02.979Z,590.63
2018-05-14T05:58:02.974Z,579.38
2018-05-14T05:59:02.943Z,573.75
2018-05-14T06:00:02.904Z,579.38
2018-05-14T06:01:02.895Z,585.00
2018-05-14T06:02:02.849Z,585.00
2018-05-14T06:03:02.870Z,624.38
2018-05-14T06:04:02.751Z,646.88
2018-05-14T06:05:02.717Z,630.00
2018-05-14T06:06:02.712Z,613.13
2018-05-14T06:07:02.795Z,613.13
2018-05-14T06:08:02.658Z,663.75
2018-05-14T06:09:02.716Z,736.88
2018-05-14T06:10:02.574Z,736.88
2018-05-14T06:11:02.547Z,680.63
2018-05-14T06:12:02.529Z,759.38
2018-05-14T06:13:02.557Z,888.75
2018-05-14T06:14:02.445Z,635.63
2018-05-14T06:15:02.446Z,618.75
2018-05-14T06:16:02.401Z,613.13
2018-05-14T06:17:02.342Z,641.25
2018-05-14T06:18:02.319Z,635.63
2018-05-14T06:19:02.286Z,635.63
2018-05-14T06:20:02.243Z,669.38
2018-05-14T06:21:02.215Z,686.25
2018-05-14T06:22:02.188Z,652.50
2018-05-14T06:23:02.179Z,641.25
2018-05-14T06:24:02.115Z,630.00
2018-05-14T06:25:02.099Z,641.25
2018-05-14T06:26:02.072Z,641.25
2018-05-14T06:27:02.051Z,641.25
2018-05-14T06:28:01.999Z,641.25
2018-05-14T06:29:01.970Z,641.25
2018-05-14T06:30:01.939Z,646.88
2018-05-14T06:31:01.898Z,641.25
2018-05-14T06:32:01.884Z,635.63
2018-05-14T06:33:01.837Z,635.63
2018-05-14T06:34:01.825Z,641.25
2018-05-14T06:35:01.807Z,641.25
2018-05-14T06:36:01.750Z,646.88
2018-05-14T06:37:01.713Z,646.88
2018-05-14T06:38:01.684Z,658.13
2018-05-14T06:39:01.647Z,658.13
2018-05-14T06:40:01.644Z,652.50
2018-05-14T06:41:01.624Z,658.13
2018-05-14T06:42:01.577Z,669.38
2018-05-14T06:43:01.530Z,680.63
2018-05-14T06:44:01.487Z,708.75
2018-05-14T06:45:01.459Z,748.13
2018-05-14T06:46:01.435Z,995.63
2018-05-14T06:47:01.416Z,1530.00
2018-05-14T06:48:01.372Z,2424.38
2018-05-14T06:49:01.348Z,3003.75
2018-05-14T06:50:01.298Z,2863.13
2018-05-14T06:51:01.293Z,2812.50
2018-05-14T06:52:01.276Z,2868.75
2018-05-14T06:53:01.224Z,2863.13
2018-05-14T06:54:01.219Z,2683.13
2018-05-14T06:55:01.192Z,2531.25
2018-05-14T06:56:01.137Z,2756.25
2018-05-14T06:57:01.121Z,2902.50
2018-05-14T06:58:01.086Z,3088.13
2018-05-14T06:59:01.077Z,3273.75
2018-05-14T07:00:01.046Z,3335.63
2018-05-14T07:01:01.008Z,3037.50
2018-05-14T07:02:01.010Z,2970.00
2018-05-14T07:03:00.952Z,3088.13
2018-05-14T07:04:00.938Z,2992.50
2018-05-14T07:05:00.878Z,3026.25
2018-05-14T07:06:00.872Z,3515.63
2018-05-14T07:07:00.866Z,3583.13
2018-05-14T07:08:00.833Z,3200.63
2018-05-14T07:09:00.809Z,3189.38
2018-05-14T07:10:00.789Z,3071.25
2018-05-14T07:11:00.760Z,2750.63
2018-05-14T07:12:00.726Z,2823.75
2018-05-14T07:13:00.752Z,2953.13
2018-05-14T07:14:00.686Z,3127.50
2018-05-14T07:15:00.668Z,2964.38
2018-05-14T07:16:00.653Z,2688.75
2018-05-14T07:17:00.616Z,2773.13
2018-05-14T07:18:00.630Z,3116.25
2018-05-14T07:19:00.573Z,3054.38
2018-05-14T07:20:00.540Z,3003.75
2018-05-14T07:21:00.512Z,3127.50
2018-05-14T07:22:00.522Z,3211.88
2018-05-14T07:23:00.512Z,3144.38
2018-05-14T07:24:00.465Z,2981.25
2018-05-14T07:25:00.460Z,3335.63
2018-05-14T07:26:00.420Z,3391.88
2018-05-14T07:27:00.387Z,3375.00
2018-05-14T07:28:00.379Z,3285.00
2018-05-14T07:29:00.385Z,3442.50
2018-05-14T07:30:00.339Z,3324.38
2018-05-14T07:31:00.345Z,3172.50
2018-05-14T07:32:00.310Z,3048.75
2018-05-14T07:33:00.320Z,3268.13
2018-05-14T07:34:00.303Z,3616.88
2018-05-14T07:35:00.265Z,3667.50
2018-05-14T07:36:00.228Z,3391.88
2018-05-14T07:37:00.231Z,2885.63
2018-05-14T07:38:00.205Z,2778.75
2018-05-14T07:39:00.213Z,3931.88
2018-05-14T07:40:00.194Z,4539.38
2018-05-14T07:41:00.949Z,4095.00
2018-05-14T07:42:00.105Z,3729.38
2018-05-14T07:43:00.168Z,3504.38
2018-05-14T07:44:00.137Z,3200.63
2018-05-14T07:45:00.056Z,3195.00
2018-05-14T07:46:00.035Z,3346.88
2018-05-14T07:47:00.003Z,3386.25
2018-05-14T07:48:00.053Z,3628.13
2018-05-14T07:48:59.978Z,4021.88
2018-05-14T07:49:59.979Z,3543.75
2018-05-14T07:51:00.053Z,3133.13
2018-05-14T07:52:00.010Z,3504.38
2018-05-14T07:52:59.958Z,3718.13
2018-05-14T07:53:59.881Z,3515.63
2018-05-14T07:54:59.945Z,3768.75
2018-05-14T07:55:59.874Z,4213.13
2018-05-14T07:56:59.940Z,3391.88
2018-05-14T07:57:59.967Z,3003.75
2018-05-14T07:58:59.956Z,3763.13
2018-05-14T07:59:59.795Z,4078.13
2018-05-14T08:00:59.761Z,4072.50
2018-05-14T08:01:59.757Z,3836.25
2018-05-14T08:02:59.753Z,3594.38
2018-05-14T08:03:59.706Z,3841.88
2018-05-14T08:04:59.699Z,3813.75
2018-05-14T08:05:59.691Z,3583.13
2018-05-14T08:06:59.658Z,3931.88
2018-05-14T08:07:59.640Z,4055.63
2018-05-14T08:08:59.634Z,3729.38
2018-05-14T08:09:59.599Z,3712.50
2018-05-14T08:10:59.636Z,4331.25
2018-05-14T08:11:59.564Z,3943.13
2018-05-14T08:12:59.541Z,3729.38
2018-05-14T08:13:59.539Z,4044.38
2018-05-14T08:14:59.508Z,3802.50
2018-05-14T08:15:59.499Z,4201.88
2018-05-14T08:16:59.497Z,4044.38
2018-05-14T08:17:59.467Z,4066.88
2018-05-14T08:18:59.457Z,4336.88
2018-05-14T08:19:59.447Z,3988.13
2018-05-14T08:20:59.411Z,3960.00
2018-05-14T08:21:59.402Z,3785.63
2018-05-14T08:22:59.405Z,3763.13
2018-05-14T08:23:59.370Z,3892.50
2018-05-14T08:24:59.325Z,4426.88
2018-05-14T08:25:59.309Z,4893.75
2018-05-14T08:26:59.293Z,4483.13
2018-05-14T08:27:59.286Z,4477.50
2018-05-14T08:28:59.262Z,4522.50
2018-05-14T08:29:59.241Z,3993.75
2018-05-14T08:30:59.218Z,3706.88
2018-05-14T08:31:59.220Z,3971.25
2018-05-14T08:32:59.198Z,4432.50
2018-05-14T08:33:59.189Z,4061.25
2018-05-14T08:34:59.169Z,3965.63
2018-05-14T08:35:59.157Z,4460.63
2018-05-14T08:36:59.146Z,4556.25
2018-05-14T08:37:59.102Z,4359.38
2018-05-14T08:38:59.084Z,3808.13
2018-05-14T08:39:59.088Z,4522.50
2018-05-14T08:40:59.044Z,4826.25
2018-05-14T08:41:59.203Z,4061.25
2018-05-14T08:42:59.035Z,4055.63
2018-05-14T08:43:59.024Z,4246.88
2018-05-14T08:44:58.991Z,3763.13
2018-05-14T08:45:58.961Z,3965.63
2018-05-14T08:46:58.945Z,4505.63
2018-05-14T08:47:58.935Z,4421.25
2018-05-14T08:48:58.987Z,4758.75
2018-05-14T08:49:58.890Z,4972.50
2018-05-14T08:50:58.872Z,4640.63
2018-05-14T08:51:58.847Z,4803.75
2018-05-14T08:52:58.834Z,4668.75
2018-05-14T08:53:58.814Z,4078.13
2018-05-14T08:54:58.794Z,3335.63
2018-05-14T08:55:58.782Z,3076.88
2018-05-14T08:56:58.776Z,3661.88
2018-05-14T08:57:58.755Z,4927.50
2018-05-14T08:58:58.732Z,5546.25
2018-05-14T08:59:58.703Z,5101.88
2018-05-14T09:00:58.692Z,4578.75
2018-05-14T09:01:58.675Z,5203.13
2018-05-14T09:02:58.645Z,6148.13
2018-05-14T09:03:58.641Z,5360.63
2018-05-14T09:04:58.630Z,4961.25
2018-05-14T09:05:58.607Z,4387.50
2018-05-14T09:06:58.584Z,4168.13
2018-05-14T09:07:58.574Z,5062.50
2018-05-14T09:08:58.578Z,5265.00
2018-05-14T09:09:58.558Z,5383.13
2018-05-14T09:10:58.515Z,4702.50
2018-05-14T09:11:58.492Z,3841.88
2018-05-14T09:12:58.884Z,4269.38
2018-05-14T09:13:58.464Z,5101.88
2018-05-14T09:14:58.439Z,5574.38
2018-05-14T09:15:58.426Z,4983.75
2018-05-14T09:16:58.399Z,5118.75
2018-05-14T09:17:58.513Z,5895.00
2018-05-14T09:18:58.369Z,5253.75
2018-05-14T09:19:58.345Z,5062.50
2018-05-14T09:20:58.325Z,4910.63
2018-05-14T09:21:58.303Z,4466.25
2018-05-14T09:22:58.283Z,4584.38
2018-05-14T09:23:58.276Z,4995.00
2018-05-14T09:24:58.253Z,4736.25
2018-05-14T09:25:58.239Z,4781.25
2018-05-14T09:26:58.249Z,5197.50
2018-05-14T09:27:58.238Z,5090.63
2018-05-14T09:28:58.165Z,4927.50
2018-05-14T09:29:58.168Z,4713.75
2018-05-14T09:30:58.135Z,4927.50
2018-05-14T09:31:58.146Z,5197.50
2018-05-14T09:32:58.109Z,4730.63
2018-05-14T09:33:58.091Z,4663.13
2018-05-14T09:34:58.086Z,5118.75
2018-05-14T09:35:58.063Z,5051.25
2018-05-14T09:36:58.045Z,4140.00
2018-05-14T09:37:58.022Z,4336.88
2018-05-14T09:38:58.001Z,4803.75
2018-05-14T09:39:57.986Z,3780.00
2018-05-14T09:40:58.487Z,2829.38
2018-05-14T09:41:57.953Z,3780.00
2018-05-14T09:42:57.938Z,5495.63
2018-05-14T09:43:57.921Z,5647.50
2018-05-14T09:44:57.876Z,5163.75
2018-05-14T09:45:57.876Z,5675.63
2018-05-14T09:46:57.860Z,5034.38
2018-05-14T09:47:57.813Z,5253.75
2018-05-14T09:48:57.813Z,5546.25
2018-05-14T09:49:57.805Z,5287.50
2018-05-14T09:50:57.769Z,5456.25
2018-05-14T09:51:57.750Z,4708.13
2018-05-14T09:52:57.733Z,4381.88
2018-05-14T09:53:57.724Z,5163.75
2018-05-14T09:54:57.706Z,5175.00
2018-05-14T09:55:57.684Z,4477.50
2018-05-14T09:56:57.665Z,5551.88
2018-05-14T09:57:57.663Z,6300.00
2018-05-14T09:58:57.623Z,5765.63
2018-05-14T09:59:57.605Z,4854.38
2018-05-14T10:00:57.585Z,5186.25
2018-05-14T10:01:57.569Z,4179.38
2018-05-14T10:02:57.553Z,3116.25
2018-05-14T10:03:57.527Z,3420.00
2018-05-14T10:04:57.526Z,4955.63
2018-05-14T10:05:57.505Z,5169.38
2018-05-14T10:06:57.503Z,4550.63
2018-05-14T10:07:57.445Z,4291.88
2018-05-14T10:08:57.439Z,4708.13
2018-05-14T10:09:57.426Z,5838.75
2018-05-14T10:10:57.395Z,6136.88
2018-05-14T10:11:57.380Z,4961.25
2018-05-14T10:12:57.449Z,4320.00
2018-05-14T10:13:57.341Z,4365.00
2018-05-14T10:14:57.322Z,4921.88
2018-05-14T10:15:57.304Z,5040.00
2018-05-14T10:16:57.306Z,5664.38
2018-05-14T10:17:57.262Z,6063.75
2018-05-14T10:18:57.245Z,5175.00
2018-05-14T10:19:57.230Z,4792.50
2018-05-14T10:20:57.213Z,5096.25
2018-05-14T10:21:57.203Z,5568.75
2018-05-14T10:22:57.174Z,5011.88
2018-05-14T10:23:57.155Z,5051.25
2018-05-14T10:24:57.153Z,5034.38
2018-05-14T10:25:57.110Z,4781.25
2018-05-14T10:26:57.085Z,5062.50
2018-05-14T10:27:57.079Z,4494.38
2018-05-14T10:28:57.051Z,3825.00
2018-05-14T10:29:57.034Z,4342.50
2018-05-14T10:30:57.031Z,4871.25
2018-05-14T10:31:57.054Z,4713.75
2018-05-14T10:32:56.967Z,4995.00
2018-05-14T10:33:56.962Z,4995.00
2018-05-14T10:34:56.950Z,5146.88
2018-05-14T10:35:56.970Z,5191.88
2018-05-14T10:36:56.955Z,5518.13
2018-05-14T10:37:56.905Z,5146.88
2018-05-14T10:38:56.900Z,4871.25
2018-05-14T10:39:56.881Z,5163.75
2018-05-14T10:40:56.890Z,5636.25
2018-05-14T10:41:56.845Z,5236.88
2018-05-14T10:42:56.807Z,5107.50
2018-05-14T10:43:56.807Z,5259.38
2018-05-14T10:44:56.761Z,5461.88
2018-05-14T10:45:56.749Z,5523.75
2018-05-14T10:46:56.701Z,4983.75
2018-05-14T10:47:56.705Z,5326.88
2018-05-14T10:48:56.694Z,5270.63
2018-05-14T10:49:56.642Z,5326.88
2018-05-14T10:50:56.649Z,5900.63
2018-05-14T10:51:56.608Z,5484.38
2018-05-14T10:52:56.659Z,5101.88
2018-05-14T10:53:56.590Z,5844.38
2018-05-14T10:54:56.549Z,5776.88
2018-05-14T10:55:56.531Z,5400.00
2018-05-14T10:56:56.506Z,5467.50
2018-05-14T10:57:56.486Z,5461.88
2018-05-14T10:58:56.467Z,5715.00
2018-05-14T10:59:56.452Z,5298.75
2018-05-14T11:00:56.431Z,5461.88
2018-05-14T11:01:56.452Z,5377.50
2018-05-14T11:02:56.398Z,5945.63
2018-05-14T11:03:56.428Z,2373.75
2018-05-14T11:04:56.357Z,5956.88
2018-05-14T11:05:56.409Z,5754.38
2018-05-14T11:06:56.322Z,5287.50
2018-05-14T11:07:56.318Z,2688.75
2018-05-14T11:08:56.334Z,5799.38
2018-05-14T11:09:56.279Z,5681.25
2018-05-14T11:10:56.276Z,5208.75
2018-05-14T11:11:56.232Z,5090.63
2018-05-14T11:12:56.220Z,4921.88
2018-05-14T11:13:56.207Z,5715.00
2018-05-14T11:14:56.183Z,6440.63
2018-05-14T11:15:56.155Z,4983.75
2018-05-14T11:16:56.112Z,4882.50
2018-05-14T11:17:56.102Z,4950.00
2018-05-14T11:18:56.074Z,5000.63
2018-05-14T11:19:56.071Z,5731.88
2018-05-14T11:20:56.043Z,5568.75
2018-05-14T11:21:56.017Z,5585.63
2018-05-14T11:22:56.019Z,5158.13
2018-05-14T11:23:55.978Z,4618.13
2018-05-14T11:24:55.958Z,4460.63
2018-05-14T11:25:55.959Z,4123.13
2018-05-14T11:26:55.938Z,5056.88
2018-05-14T11:27:55.982Z,4893.75
2018-05-14T11:28:55.895Z,4348.13
2018-05-14T11:29:55.899Z,4966.88
2018-05-14T11:30:55.840Z,5056.88
2018-05-14T11:31:55.827Z,4387.50
2018-05-14T11:32:55.812Z,4899.38
2018-05-14T11:33:55.768Z,6654.38
2018-05-14T11:34:55.766Z,5878.13
2018-05-14T11:35:55.728Z,4663.13
2018-05-14T11:36:55.736Z,4567.50
2018-05-14T11:37:55.700Z,5113.13
2018-05-14T11:38:55.677Z,6024.38
2018-05-14T11:39:55.657Z,5068.13
2018-05-14T11:40:55.672Z,4612.50
2018-05-14T11:41:55.646Z,4736.25
2018-05-14T11:42:55.607Z,4483.13
2018-05-14T11:43:55.589Z,4905.00
2018-05-14T11:44:55.563Z,5371.88
2018-05-14T11:45:55.554Z,5265.00
2018-05-14T11:46:55.507Z,5101.88
2018-05-14T11:47:55.495Z,5146.88
2018-05-14T11:48:55.475Z,4786.88
2018-05-14T11:49:55.450Z,5450.63
2018-05-14T11:50:55.447Z,6058.13
2018-05-14T11:51:55.426Z,5315.63
2018-05-14T11:52:55.401Z,5523.75
2018-05-14T11:53:55.403Z,5551.88
2018-05-14T11:54:55.360Z,5416.88
2018-05-14T11:55:55.335Z,5366.25
2018-05-14T11:56:55.312Z,4888.13
2018-05-14T11:57:55.332Z,4927.50
2018-05-14T11:58:55.278Z,5090.63
2018-05-14T11:59:55.289Z,5051.25
2018-05-14T12:00:55.248Z,4668.75
2018-05-14T12:01:55.247Z,4685.63
2018-05-14T12:02:55.216Z,4663.13
2018-05-14T12:03:55.192Z,4663.13
2018-05-14T12:04:55.234Z,4708.13
2018-05-14T12:05:55.154Z,5141.25
2018-05-14T12:06:55.136Z,5124.38
2018-05-14T12:07:55.099Z,4995.00
2018-05-14T12:08:55.105Z,5130.00
2018-05-14T12:09:55.051Z,5259.38
2018-05-14T12:10:55.045Z,4528.13
2018-05-14T12:11:55.027Z,4719.38
2018-05-14T12:12:54.996Z,4927.50
2018-05-14T12:13:54.998Z,4753.13
2018-05-14T12:14:54.989Z,5034.38
2018-05-14T12:15:55.050Z,5203.13
2018-05-14T12:16:54.930Z,5450.63
2018-05-14T12:17:54.949Z,4685.63
2018-05-14T12:18:54.883Z,4685.63
2018-05-14T12:19:54.876Z,5506.88
2018-05-14T12:20:54.841Z,5670.00
2018-05-14T12:21:54.814Z,5895.00
2018-05-14T12:22:54.786Z,5355.00
2018-05-14T12:23:54.783Z,5326.88
2018-05-14T12:24:54.774Z,5101.88
2018-05-14T12:25:54.731Z,4291.88
2018-05-14T12:26:54.740Z,4809.38
2018-05-14T12:27:54.727Z,5422.50
2018-05-14T12:28:54.706Z,4561.88
2018-05-14T12:29:54.738Z,4483.13